sensor_id;sensor_type;location;lat;lon;timestamp;P1;durP1;ratioP1;P2;durP2;ratioP2
59950;SDS011;45812;53.540;9.774;2023-10-19T00:03:20;14.55;;;6.43;;
59950;SDS011;45812;53.540;9.774;2023-10-19T00:05:48;12.88;;;6.07;;
59950;SDS011;45812;53.540;9.774;2023-10-19T00:08:14;13.45;;;6.75;;
59950;SDS011;45812;53.540;9.774;2023-10-19T00:10:46;16.95;;;6.22;;
59950;SDS011;45812;53.540;9.774;2023-10-19T00:13:33;12.70;;;6.25;;
59950;SDS011;45812;53.540;9.774;2023-10-19T00:16:08;13.18;;;5.95;;
59950;SDS011;45812;53.540;9.774;2023-10-19T00:21:07;13.02;;;6.03;;
59950;SDS011;45812;53.540;9.774;2023-10-19T00:23:44;11.75;;;5.85;;
59950;SDS011;45812;53.540;9.774;2023-10-19T00:26:12;14.57;;;5.97;;
59950;SDS011;45812;53.540;9.774;2023-10-19T00:28:44;13.73;;;6.97;;
59950;SDS011;45812;53.540;9.774;2023-10-19T00:31:11;14.00;;;6.97;;
59950;SDS011;45812;53.540;9.774;2023-10-19T00:33:40;16.73;;;7.38;;
59950;SDS011;45812;53.540;9.774;2023-10-19T00:36:09;14.73;;;6.75;;
59950;SDS011;45812;53.540;9.774;2023-10-19T00:38:38;14.40;;;6.60;;
59950;SDS011;45812;53.540;9.774;2023-10-19T00:41:04;13.88;;;7.15;;
59950;SDS011;45812;53.540;9.774;2023-10-19T00:43:33;16.77;;;6.85;;
59950;SDS011;45812;53.540;9.774;2023-10-19T00:46:11;20.23;;;7.63;;
59950;SDS011;45812;53.540;9.774;2023-10-19T00:49:04;15.13;;;6.70;;
59950;SDS011;45812;53.540;9.774;2023-10-19T00:51:33;17.75;;;7.32;;
59950;SDS011;45812;53.540;9.774;2023-10-19T00:54:15;17.67;;;7.57;;
59950;SDS011;45812;53.540;9.774;2023-10-19T00:56:49;18.50;;;7.75;;
59950;SDS011;45812;53.540;9.774;2023-10-19T00:59:17;17.88;;;7.35;;
59950;SDS011;45812;53.540;9.774;2023-10-19T01:01:50;20.67;;;8.02;;
59950;SDS011;45812;53.540;9.774;2023-10-19T01:04:19;17.65;;;8.13;;
59950;SDS011;45812;53.540;9.774;2023-10-19T01:06:48;18.80;;;7.93;;
59950;SDS011;45812;53.540;9.774;2023-10-19T01:09:30;19.55;;;8.38;;
59950;SDS011;45812;53.540;9.774;2023-10-19T01:12:00;18.95;;;8.45;;
59950;SDS011;45812;53.540;9.774;2023-10-19T01:17:44;17.35;;;7.88;;
59950;SDS011;45812;53.540;9.774;2023-10-19T01:20:14;15.38;;;7.05;;
59950;SDS011;45812;53.540;9.774;2023-10-19T01:22:56;14.80;;;7.05;;
59950;SDS011;45812;53.540;9.774;2023-10-19T01:28:07;14.80;;;7.47;;
59950;SDS011;45812;53.540;9.774;2023-10-19T01:30:34;18.58;;;7.65;;
59950;SDS011;45812;53.540;9.774;2023-10-19T01:33:01;13.07;;;6.35;;
59950;SDS011;45812;53.540;9.774;2023-10-19T01:35:27;17.20;;;7.03;;
59950;SDS011;45812;53.540;9.774;2023-10-19T01:38:13;17.08;;;6.50;;
59950;SDS011;45812;53.540;9.774;2023-10-19T01:40:38;16.15;;;7.85;;
59950;SDS011;45812;53.540;9.774;2023-10-19T01:43:11;13.85;;;7.45;;
59950;SDS011;45812;53.540;9.774;2023-10-19T01:45:44;16.38;;;6.97;;
59950;SDS011;45812;53.540;9.774;2023-10-19T01:48:10;15.90;;;7.35;;
59950;SDS011;45812;53.540;9.774;2023-10-19T01:50:37;13.52;;;7.30;;
59950;SDS011;45812;53.540;9.774;2023-10-19T01:53:04;15.50;;;7.65;;
59950;SDS011;45812;53.540;9.774;2023-10-19T01:58:03;14.52;;;6.72;;
59950;SDS011;45812;53.540;9.774;2023-10-19T02:00:28;17.23;;;6.90;;
59950;SDS011;45812;53.540;9.774;2023-10-19T02:02:53;16.80;;;7.25;;
59950;SDS011;45812;53.540;9.774;2023-10-19T02:05:19;18.65;;;7.65;;
59950;SDS011;45812;53.540;9.774;2023-10-19T02:07:44;18.52;;;6.95;;
59950;SDS011;45812;53.540;9.774;2023-10-19T02:10:09;20.90;;;8.00;;
59950;SDS011;45812;53.540;9.774;2023-10-19T02:12:35;23.70;;;8.27;;
59950;SDS011;45812;53.540;9.774;2023-10-19T02:15:01;17.52;;;7.85;;
59950;SDS011;45812;53.540;9.774;2023-10-19T02:17:26;19.80;;;7.63;;
59950;SDS011;45812;53.540;9.774;2023-10-19T02:19:51;15.38;;;7.70;;
59950;SDS011;45812;53.540;9.774;2023-10-19T02:22:18;21.88;;;7.80;;
59950;SDS011;45812;53.540;9.774;2023-10-19T02:24:43;18.63;;;7.68;;
59950;SDS011;45812;53.540;9.774;2023-10-19T02:27:08;18.17;;;7.80;;
59950;SDS011;45812;53.540;9.774;2023-10-19T02:29:34;16.05;;;7.55;;
59950;SDS011;45812;53.540;9.774;2023-10-19T02:32:01;20.25;;;7.65;;
59950;SDS011;45812;53.540;9.774;2023-10-19T02:34:30;17.95;;;7.45;;
59950;SDS011;45812;53.540;9.774;2023-10-19T02:36:55;19.42;;;7.57;;
59950;SDS011;45812;53.540;9.774;2023-10-19T02:39:21;15.40;;;7.15;;
59950;SDS011;45812;53.540;9.774;2023-10-19T02:41:50;15.68;;;7.10;;
59950;SDS011;45812;53.540;9.774;2023-10-19T02:44:19;15.68;;;6.95;;
59950;SDS011;45812;53.540;9.774;2023-10-19T02:46:48;16.35;;;6.82;;
59950;SDS011;45812;53.540;9.774;2023-10-19T02:49:19;13.90;;;7.30;;
59950;SDS011;45812;53.540;9.774;2023-10-19T02:51:46;15.38;;;6.93;;
59950;SDS011;45812;53.540;9.774;2023-10-19T02:54:13;17.67;;;7.38;;
59950;SDS011;45812;53.540;9.774;2023-10-19T02:56:46;15.18;;;7.05;;
59950;SDS011;45812;53.540;9.774;2023-10-19T02:59:14;15.13;;;7.05;;
59950;SDS011;45812;53.540;9.774;2023-10-19T03:01:41;20.35;;;7.80;;
59950;SDS011;45812;53.540;9.774;2023-10-19T03:04:09;15.27;;;6.80;;
59950;SDS011;45812;53.540;9.774;2023-10-19T03:06:37;21.95;;;7.72;;
59950;SDS011;45812;53.540;9.774;2023-10-19T03:09:05;18.70;;;7.00;;
59950;SDS011;45812;53.540;9.774;2023-10-19T03:11:38;15.80;;;7.05;;
59950;SDS011;45812;53.540;9.774;2023-10-19T03:14:08;15.95;;;8.25;;
59950;SDS011;45812;53.540;9.774;2023-10-19T03:16:34;18.08;;;7.78;;
59950;SDS011;45812;53.540;9.774;2023-10-19T03:19:01;17.08;;;7.93;;
59950;SDS011;45812;53.540;9.774;2023-10-19T03:21:26;18.42;;;7.78;;
59950;SDS011;45812;53.540;9.774;2023-10-19T03:23:52;19.38;;;7.93;;
59950;SDS011;45812;53.540;9.774;2023-10-19T03:26:21;17.77;;;8.38;;
59950;SDS011;45812;53.540;9.774;2023-10-19T03:28:56;22.92;;;8.43;;
59950;SDS011;45812;53.540;9.774;2023-10-19T03:31:26;21.90;;;8.10;;
59950;SDS011;45812;53.540;9.774;2023-10-19T03:33:52;25.83;;;9.13;;
59950;SDS011;45812;53.540;9.774;2023-10-19T03:36:24;24.10;;;9.45;;
59950;SDS011;45812;53.540;9.774;2023-10-19T03:38:50;27.23;;;9.82;;
59950;SDS011;45812;53.540;9.774;2023-10-19T03:41:17;23.98;;;9.27;;
59950;SDS011;45812;53.540;9.774;2023-10-19T03:43:46;33.17;;;10.57;;
59950;SDS011;45812;53.540;9.774;2023-10-19T03:46:13;27.05;;;9.88;;
59950;SDS011;45812;53.540;9.774;2023-10-19T03:48:55;24.95;;;9.05;;
59950;SDS011;45812;53.540;9.774;2023-10-19T03:51:28;20.30;;;8.68;;
59950;SDS011;45812;53.540;9.774;2023-10-19T03:54:05;24.38;;;9.65;;
59950;SDS011;45812;53.540;9.774;2023-10-19T03:56:46;23.17;;;9.40;;
59950;SDS011;45812;53.540;9.774;2023-10-19T03:59:13;24.40;;;8.80;;
59950;SDS011;45812;53.540;9.774;2023-10-19T04:01:38;20.65;;;9.15;;
59950;SDS011;45812;53.540;9.774;2023-10-19T04:04:04;21.02;;;8.27;;
59950;SDS011;45812;53.540;9.774;2023-10-19T04:06:30;21.70;;;9.90;;
59950;SDS011;45812;53.540;9.774;2023-10-19T04:08:55;17.42;;;7.80;;
59950;SDS011;45812;53.540;9.774;2023-10-19T04:11:20;19.83;;;8.65;;
59950;SDS011;45812;53.540;9.774;2023-10-19T04:13:49;21.05;;;8.18;;
59950;SDS011;45812;53.540;9.774;2023-10-19T04:16:24;20.08;;;7.88;;
59950;SDS011;45812;53.540;9.774;2023-10-19T04:18:49;15.80;;;7.85;;
59950;SDS011;45812;53.540;9.774;2023-10-19T04:21:14;18.08;;;8.05;;
59950;SDS011;45812;53.540;9.774;2023-10-19T04:23:40;18.33;;;8.18;;
59950;SDS011;45812;53.540;9.774;2023-10-19T04:26:05;16.08;;;8.07;;
59950;SDS011;45812;53.540;9.774;2023-10-19T04:28:35;21.08;;;8.18;;
59950;SDS011;45812;53.540;9.774;2023-10-19T04:31:14;15.85;;;7.70;;
59950;SDS011;45812;53.540;9.774;2023-10-19T04:33:41;17.33;;;8.23;;
59950;SDS011;45812;53.540;9.774;2023-10-19T04:36:10;19.20;;;8.07;;
59950;SDS011;45812;53.540;9.774;2023-10-19T04:38:39;21.75;;;8.63;;
59950;SDS011;45812;53.540;9.774;2023-10-19T04:41:05;18.23;;;7.82;;
59950;SDS011;45812;53.540;9.774;2023-10-19T04:43:35;20.58;;;8.40;;
59950;SDS011;45812;53.540;9.774;2023-10-19T04:46:08;19.95;;;8.43;;
59950;SDS011;45812;53.540;9.774;2023-10-19T04:48:38;17.52;;;8.38;;
59950;SDS011;45812;53.540;9.774;2023-10-19T04:51:05;18.08;;;8.68;;
59950;SDS011;45812;53.540;9.774;2023-10-19T04:53:31;19.08;;;8.85;;
59950;SDS011;45812;53.540;9.774;2023-10-19T04:55:57;18.95;;;7.90;;
59950;SDS011;45812;53.540;9.774;2023-10-19T04:58:24;21.13;;;8.60;;
59950;SDS011;45812;53.540;9.774;2023-10-19T05:00:49;22.77;;;8.43;;
59950;SDS011;45812;53.540;9.774;2023-10-19T05:03:15;20.20;;;8.85;;
59950;SDS011;45812;53.540;9.774;2023-10-19T05:05:43;17.98;;;8.38;;
59950;SDS011;45812;53.540;9.774;2023-10-19T05:08:09;19.17;;;7.55;;
59950;SDS011;45812;53.540;9.774;2023-10-19T05:10:34;18.92;;;8.57;;
59950;SDS011;45812;53.540;9.774;2023-10-19T05:12:59;17.75;;;7.88;;
59950;SDS011;45812;53.540;9.774;2023-10-19T05:15:24;19.80;;;8.55;;
59950;SDS011;45812;53.540;9.774;2023-10-19T05:17:50;20.90;;;9.05;;
59950;SDS011;45812;53.540;9.774;2023-10-19T05:20:15;17.55;;;7.97;;
59950;SDS011;45812;53.540;9.774;2023-10-19T05:22:40;18.27;;;8.80;;
59950;SDS011;45812;53.540;9.774;2023-10-19T05:25:05;17.25;;;8.60;;
59950;SDS011;45812;53.540;9.774;2023-10-19T05:27:32;16.45;;;7.35;;
59950;SDS011;45812;53.540;9.774;2023-10-19T05:29:58;17.95;;;8.02;;
59950;SDS011;45812;53.540;9.774;2023-10-19T05:32:23;20.45;;;8.30;;
59950;SDS011;45812;53.540;9.774;2023-10-19T05:34:49;19.10;;;8.18;;
59950;SDS011;45812;53.540;9.774;2023-10-19T05:37:14;19.58;;;8.07;;
59950;SDS011;45812;53.540;9.774;2023-10-19T05:39:41;18.02;;;9.07;;
59950;SDS011;45812;53.540;9.774;2023-10-19T05:42:07;17.92;;;8.05;;
59950;SDS011;45812;53.540;9.774;2023-10-19T05:44:32;21.08;;;8.02;;
59950;SDS011;45812;53.540;9.774;2023-10-19T05:46:58;20.17;;;8.27;;
59950;SDS011;45812;53.540;9.774;2023-10-19T05:49:23;18.60;;;8.07;;
59950;SDS011;45812;53.540;9.774;2023-10-19T05:51:49;17.67;;;8.00;;
59950;SDS011;45812;53.540;9.774;2023-10-19T05:54:14;19.30;;;8.10;;
59950;SDS011;45812;53.540;9.774;2023-10-19T05:56:40;17.50;;;7.95;;
59950;SDS011;45812;53.540;9.774;2023-10-19T05:59:05;22.13;;;9.15;;
59950;SDS011;45812;53.540;9.774;2023-10-19T06:01:31;19.25;;;8.18;;
59950;SDS011;45812;53.540;9.774;2023-10-19T06:03:57;18.95;;;8.32;;
59950;SDS011;45812;53.540;9.774;2023-10-19T06:06:22;18.90;;;8.20;;
59950;SDS011;45812;53.540;9.774;2023-10-19T06:08:48;19.33;;;8.77;;
59950;SDS011;45812;53.540;9.774;2023-10-19T06:11:14;26.08;;;9.45;;
59950;SDS011;45812;53.540;9.774;2023-10-19T06:13:39;21.10;;;8.85;;
59950;SDS011;45812;53.540;9.774;2023-10-19T06:16:05;21.05;;;8.57;;
59950;SDS011;45812;53.540;9.774;2023-10-19T06:18:30;22.10;;;8.18;;
59950;SDS011;45812;53.540;9.774;2023-10-19T06:20:56;18.38;;;8.10;;
59950;SDS011;45812;53.540;9.774;2023-10-19T06:23:21;17.92;;;7.85;;
59950;SDS011;45812;53.540;9.774;2023-10-19T06:25:47;19.73;;;8.07;;
59950;SDS011;45812;53.540;9.774;2023-10-19T06:28:12;18.35;;;7.88;;
59950;SDS011;45812;53.540;9.774;2023-10-19T06:30:38;24.00;;;8.68;;
59950;SDS011;45812;53.540;9.774;2023-10-19T06:33:05;21.73;;;8.70;;
59950;SDS011;45812;53.540;9.774;2023-10-19T06:35:31;19.73;;;8.05;;
59950;SDS011;45812;53.540;9.774;2023-10-19T06:37:57;22.65;;;8.48;;
59950;SDS011;45812;53.540;9.774;2023-10-19T06:40:26;18.25;;;7.95;;
59950;SDS011;45812;53.540;9.774;2023-10-19T06:42:54;20.58;;;8.57;;
59950;SDS011;45812;53.540;9.774;2023-10-19T06:45:21;17.40;;;8.20;;
59950;SDS011;45812;53.540;9.774;2023-10-19T06:47:48;19.90;;;8.57;;
59950;SDS011;45812;53.540;9.774;2023-10-19T06:50:18;18.08;;;7.55;;
59950;SDS011;45812;53.540;9.774;2023-10-19T06:52:45;16.75;;;7.80;;
59950;SDS011;45812;53.540;9.774;2023-10-19T06:55:12;19.73;;;8.18;;
59950;SDS011;45812;53.540;9.774;2023-10-19T06:57:46;20.67;;;8.38;;
59950;SDS011;45812;53.540;9.774;2023-10-19T07:00:13;17.80;;;8.15;;
59950;SDS011;45812;53.540;9.774;2023-10-19T07:02:41;19.15;;;8.55;;
59950;SDS011;45812;53.540;9.774;2023-10-19T07:05:07;20.02;;;8.95;;
59950;SDS011;45812;53.540;9.774;2023-10-19T07:07:36;17.05;;;8.43;;
59950;SDS011;45812;53.540;9.774;2023-10-19T07:10:02;20.75;;;9.57;;
59950;SDS011;45812;53.540;9.774;2023-10-19T07:12:28;17.42;;;7.93;;
59950;SDS011;45812;53.540;9.774;2023-10-19T07:14:53;18.77;;;8.90;;
59950;SDS011;45812;53.540;9.774;2023-10-19T07:17:19;21.25;;;8.27;;
59950;SDS011;45812;53.540;9.774;2023-10-19T07:19:44;19.25;;;9.05;;
59950;SDS011;45812;53.540;9.774;2023-10-19T07:22:13;20.02;;;8.23;;
59950;SDS011;45812;53.540;9.774;2023-10-19T07:24:39;23.23;;;8.13;;
59950;SDS011;45812;53.540;9.774;2023-10-19T07:27:05;17.08;;;7.78;;
59950;SDS011;45812;53.540;9.774;2023-10-19T07:29:32;21.10;;;8.25;;
59950;SDS011;45812;53.540;9.774;2023-10-19T07:32:00;17.40;;;7.95;;
59950;SDS011;45812;53.540;9.774;2023-10-19T07:34:26;19.17;;;8.13;;
59950;SDS011;45812;53.540;9.774;2023-10-19T07:36:53;20.65;;;8.35;;
59950;SDS011;45812;53.540;9.774;2023-10-19T07:39:19;21.80;;;9.00;;
59950;SDS011;45812;53.540;9.774;2023-10-19T07:41:45;19.52;;;8.90;;
59950;SDS011;45812;53.540;9.774;2023-10-19T07:44:11;18.83;;;8.95;;
59950;SDS011;45812;53.540;9.774;2023-10-19T07:46:37;20.40;;;8.32;;
59950;SDS011;45812;53.540;9.774;2023-10-19T07:49:02;21.13;;;9.25;;
59950;SDS011;45812;53.540;9.774;2023-10-19T07:51:29;17.67;;;8.48;;
59950;SDS011;45812;53.540;9.774;2023-10-19T07:53:55;15.90;;;8.57;;
59950;SDS011;45812;53.540;9.774;2023-10-19T07:56:21;19.33;;;7.97;;
59950;SDS011;45812;53.540;9.774;2023-10-19T07:58:47;24.33;;;8.60;;
59950;SDS011;45812;53.540;9.774;2023-10-19T08:01:12;21.25;;;9.23;;
59950;SDS011;45812;53.540;9.774;2023-10-19T08:03:37;19.13;;;8.65;;
59950;SDS011;45812;53.540;9.774;2023-10-19T08:06:03;22.67;;;8.45;;
59950;SDS011;45812;53.540;9.774;2023-10-19T08:08:29;18.88;;;8.93;;
59950;SDS011;45812;53.540;9.774;2023-10-19T08:10:59;14.98;;;8.20;;
59950;SDS011;45812;53.540;9.774;2023-10-19T08:13:24;20.08;;;8.18;;
59950;SDS011;45812;53.540;9.774;2023-10-19T08:15:51;21.08;;;7.78;;
59950;SDS011;45812;53.540;9.774;2023-10-19T08:18:16;21.63;;;9.38;;
59950;SDS011;45812;53.540;9.774;2023-10-19T08:20:42;21.98;;;9.18;;
59950;SDS011;45812;53.540;9.774;2023-10-19T08:23:10;19.33;;;8.77;;
59950;SDS011;45812;53.540;9.774;2023-10-19T08:25:36;18.23;;;8.95;;
59950;SDS011;45812;53.540;9.774;2023-10-19T08:28:01;20.02;;;7.90;;
59950;SDS011;45812;53.540;9.774;2023-10-19T08:30:26;18.42;;;8.48;;
59950;SDS011;45812;53.540;9.774;2023-10-19T08:32:52;23.70;;;8.80;;
59950;SDS011;45812;53.540;9.774;2023-10-19T08:35:18;19.00;;;8.48;;
59950;SDS011;45812;53.540;9.774;2023-10-19T08:40:16;16.88;;;8.27;;
59950;SDS011;45812;53.540;9.774;2023-10-19T08:42:43;19.33;;;8.90;;
59950;SDS011;45812;53.540;9.774;2023-10-19T08:45:10;22.42;;;9.07;;
59950;SDS011;45812;53.540;9.774;2023-10-19T08:47:40;16.73;;;7.88;;
59950;SDS011;45812;53.540;9.774;2023-10-19T08:50:08;19.08;;;7.93;;
59950;SDS011;45812;53.540;9.774;2023-10-19T08:52:34;20.55;;;8.40;;
59950;SDS011;45812;53.540;9.774;2023-10-19T08:55:01;22.42;;;8.90;;
59950;SDS011;45812;53.540;9.774;2023-10-19T08:57:26;25.35;;;9.27;;
59950;SDS011;45812;53.540;9.774;2023-10-19T08:59:53;20.63;;;9.00;;
59950;SDS011;45812;53.540;9.774;2023-10-19T09:02:21;20.52;;;9.18;;
59950;SDS011;45812;53.540;9.774;2023-10-19T09:04:47;20.88;;;8.13;;
59950;SDS011;45812;53.540;9.774;2023-10-19T09:07:12;21.23;;;8.77;;
59950;SDS011;45812;53.540;9.774;2023-10-19T09:09:39;23.25;;;9.23;;
59950;SDS011;45812;53.540;9.774;2023-10-19T09:12:07;18.52;;;8.15;;
59950;SDS011;45812;53.540;9.774;2023-10-19T09:14:34;20.15;;;9.05;;
59950;SDS011;45812;53.540;9.774;2023-10-19T09:19:35;18.35;;;9.02;;
59950;SDS011;45812;53.540;9.774;2023-10-19T09:22:08;20.30;;;9.10;;
59950;SDS011;45812;53.540;9.774;2023-10-19T09:24:43;17.05;;;8.85;;
59950;SDS011;45812;53.540;9.774;2023-10-19T09:27:10;17.73;;;8.63;;
59950;SDS011;45812;53.540;9.774;2023-10-19T09:29:35;18.83;;;8.55;;
59950;SDS011;45812;53.540;9.774;2023-10-19T09:32:01;17.95;;;9.25;;
59950;SDS011;45812;53.540;9.774;2023-10-19T09:34:29;18.55;;;9.18;;
59950;SDS011;45812;53.540;9.774;2023-10-19T09:36:58;20.55;;;8.95;;
59950;SDS011;45812;53.540;9.774;2023-10-19T09:39:25;22.52;;;9.45;;
59950;SDS011;45812;53.540;9.774;2023-10-19T09:41:59;22.50;;;9.60;;
59950;SDS011;45812;53.540;9.774;2023-10-19T09:44:26;18.38;;;9.18;;
59950;SDS011;45812;53.540;9.774;2023-10-19T09:46:56;19.38;;;8.77;;
59950;SDS011;45812;53.540;9.774;2023-10-19T09:49:23;19.83;;;9.32;;
59950;SDS011;45812;53.540;9.774;2023-10-19T09:51:49;20.45;;;9.55;;
59950;SDS011;45812;53.540;9.774;2023-10-19T09:54:25;23.13;;;9.25;;
59950;SDS011;45812;53.540;9.774;2023-10-19T09:56:58;22.67;;;9.75;;
59950;SDS011;45812;53.540;9.774;2023-10-19T09:59:32;18.35;;;9.40;;
59950;SDS011;45812;53.540;9.774;2023-10-19T10:02:07;22.67;;;10.30;;
59950;SDS011;45812;53.540;9.774;2023-10-19T10:04:37;19.85;;;9.88;;
59950;SDS011;45812;53.540;9.774;2023-10-19T10:07:04;31.63;;;9.02;;
59950;SDS011;45812;53.540;9.774;2023-10-19T10:09:32;20.48;;;9.82;;
59950;SDS011;45812;53.540;9.774;2023-10-19T10:12:20;19.35;;;9.55;;
59950;SDS011;45812;53.540;9.774;2023-10-19T10:17:26;20.50;;;8.57;;
59950;SDS011;45812;53.540;9.774;2023-10-19T10:19:53;19.42;;;9.13;;
59950;SDS011;45812;53.540;9.774;2023-10-19T10:22:21;23.42;;;9.50;;
59950;SDS011;45812;53.540;9.774;2023-10-19T10:24:47;20.98;;;9.70;;
59950;SDS011;45812;53.540;9.774;2023-10-19T10:27:18;20.77;;;11.27;;
59950;SDS011;45812;53.540;9.774;2023-10-19T10:29:57;19.98;;;9.35;;
59950;SDS011;45812;53.540;9.774;2023-10-19T10:32:47;22.30;;;10.25;;
59950;SDS011;45812;53.540;9.774;2023-10-19T10:38:01;19.08;;;9.63;;
59950;SDS011;45812;53.540;9.774;2023-10-19T10:40:26;20.05;;;9.88;;
59950;SDS011;45812;53.540;9.774;2023-10-19T10:43:04;19.95;;;9.32;;
59950;SDS011;45812;53.540;9.774;2023-10-19T10:45:30;18.13;;;9.65;;
59950;SDS011;45812;53.540;9.774;2023-10-19T10:47:55;20.13;;;9.32;;
59950;SDS011;45812;53.540;9.774;2023-10-19T10:50:21;18.92;;;9.32;;
59950;SDS011;45812;53.540;9.774;2023-10-19T10:52:46;20.83;;;9.45;;
59950;SDS011;45812;53.540;9.774;2023-10-19T10:55:12;20.38;;;9.25;;
59950;SDS011;45812;53.540;9.774;2023-10-19T10:57:39;20.08;;;9.48;;
59950;SDS011;45812;53.540;9.774;2023-10-19T11:02:40;18.38;;;9.63;;
59950;SDS011;45812;53.540;9.774;2023-10-19T11:05:11;19.70;;;8.85;;
59950;SDS011;45812;53.540;9.774;2023-10-19T11:07:41;18.23;;;8.43;;
59950;SDS011;45812;53.540;9.774;2023-10-19T11:10:27;19.83;;;9.27;;
59950;SDS011;45812;53.540;9.774;2023-10-19T11:12:59;16.98;;;9.20;;
59950;SDS011;45812;53.540;9.774;2023-10-19T11:15:25;24.27;;;9.90;;
59950;SDS011;45812;53.540;9.774;2023-10-19T11:17:50;16.83;;;8.10;;
59950;SDS011;45812;53.540;9.774;2023-10-19T11:20:25;20.55;;;9.68;;
59950;SDS011;45812;53.540;9.774;2023-10-19T11:22:54;18.38;;;9.23;;
59950;SDS011;45812;53.540;9.774;2023-10-19T11:25:24;18.35;;;9.88;;
59950;SDS011;45812;53.540;9.774;2023-10-19T11:27:54;19.27;;;8.77;;
59950;SDS011;45812;53.540;9.774;2023-10-19T11:30:29;20.70;;;8.88;;
59950;SDS011;45812;53.540;9.774;2023-10-19T11:32:58;18.55;;;9.38;;
59950;SDS011;45812;53.540;9.774;2023-10-19T11:35:26;18.60;;;8.90;;
59950;SDS011;45812;53.540;9.774;2023-10-19T11:37:56;17.95;;;9.32;;
59950;SDS011;45812;53.540;9.774;2023-10-19T11:40:22;17.25;;;8.15;;
59950;SDS011;45812;53.540;9.774;2023-10-19T11:42:49;20.40;;;9.02;;
59950;SDS011;45812;53.540;9.774;2023-10-19T11:45:15;22.17;;;9.63;;
59950;SDS011;45812;53.540;9.774;2023-10-19T11:47:44;19.00;;;9.43;;
59950;SDS011;45812;53.540;9.774;2023-10-19T11:50:10;19.35;;;8.95;;
59950;SDS011;45812;53.540;9.774;2023-10-19T11:52:40;20.88;;;9.98;;
59950;SDS011;45812;53.540;9.774;2023-10-19T11:55:09;17.30;;;9.27;;
59950;SDS011;45812;53.540;9.774;2023-10-19T11:57:34;21.42;;;9.10;;
59950;SDS011;45812;53.540;9.774;2023-10-19T12:00:01;18.75;;;8.80;;
59950;SDS011;45812;53.540;9.774;2023-10-19T12:02:33;18.47;;;9.07;;
59950;SDS011;45812;53.540;9.774;2023-10-19T12:04:58;17.65;;;8.30;;
59950;SDS011;45812;53.540;9.774;2023-10-19T12:07:23;20.80;;;9.10;;
59950;SDS011;45812;53.540;9.774;2023-10-19T12:09:49;22.42;;;9.90;;
59950;SDS011;45812;53.540;9.774;2023-10-19T12:12:14;22.02;;;8.82;;
59950;SDS011;45812;53.540;9.774;2023-10-19T12:14:40;19.40;;;10.00;;
59950;SDS011;45812;53.540;9.774;2023-10-19T12:17:05;21.02;;;9.43;;
59950;SDS011;45812;53.540;9.774;2023-10-19T12:19:32;23.15;;;9.30;;
59950;SDS011;45812;53.540;9.774;2023-10-19T12:21:59;16.85;;;9.05;;
59950;SDS011;45812;53.540;9.774;2023-10-19T12:24:24;19.35;;;9.40;;
59950;SDS011;45812;53.540;9.774;2023-10-19T12:26:53;20.60;;;9.52;;
59950;SDS011;45812;53.540;9.774;2023-10-19T12:29:18;19.77;;;9.07;;
59950;SDS011;45812;53.540;9.774;2023-10-19T12:31:46;19.23;;;8.88;;
59950;SDS011;45812;53.540;9.774;2023-10-19T12:34:12;18.50;;;8.85;;
59950;SDS011;45812;53.540;9.774;2023-10-19T12:36:37;21.05;;;10.35;;
59950;SDS011;45812;53.540;9.774;2023-10-19T12:39:03;21.48;;;9.27;;
59950;SDS011;45812;53.540;9.774;2023-10-19T12:41:31;17.55;;;7.97;;
59950;SDS011;45812;53.540;9.774;2023-10-19T12:43:56;19.55;;;9.25;;
59950;SDS011;45812;53.540;9.774;2023-10-19T12:46:25;18.70;;;9.52;;
59950;SDS011;45812;53.540;9.774;2023-10-19T12:48:52;20.48;;;9.85;;
59950;SDS011;45812;53.540;9.774;2023-10-19T12:51:19;17.67;;;9.05;;
59950;SDS011;45812;53.540;9.774;2023-10-19T12:53:48;20.17;;;10.02;;
59950;SDS011;45812;53.540;9.774;2023-10-19T12:56:16;18.05;;;8.98;;
59950;SDS011;45812;53.540;9.774;2023-10-19T12:58:41;21.90;;;9.98;;
59950;SDS011;45812;53.540;9.774;2023-10-19T13:01:08;21.60;;;9.27;;
59950;SDS011;45812;53.540;9.774;2023-10-19T13:03:41;17.40;;;8.85;;
59950;SDS011;45812;53.540;9.774;2023-10-19T13:06:07;19.55;;;9.38;;
59950;SDS011;45812;53.540;9.774;2023-10-19T13:08:32;19.35;;;9.35;;
59950;SDS011;45812;53.540;9.774;2023-10-19T13:10:57;19.48;;;8.75;;
59950;SDS011;45812;53.540;9.774;2023-10-19T13:13:23;24.92;;;10.07;;
59950;SDS011;45812;53.540;9.774;2023-10-19T13:15:49;18.70;;;8.95;;
59950;SDS011;45812;53.540;9.774;2023-10-19T13:18:14;18.10;;;8.77;;
59950;SDS011;45812;53.540;9.774;2023-10-19T13:20:47;23.05;;;9.18;;
59950;SDS011;45812;53.540;9.774;2023-10-19T13:23:13;20.45;;;10.02;;
59950;SDS011;45812;53.540;9.774;2023-10-19T13:25:46;19.70;;;9.88;;
59950;SDS011;45812;53.540;9.774;2023-10-19T13:28:15;22.67;;;10.07;;
59950;SDS011;45812;53.540;9.774;2023-10-19T13:30:42;20.02;;;9.07;;
59950;SDS011;45812;53.540;9.774;2023-10-19T13:33:12;19.77;;;8.98;;
59950;SDS011;45812;53.540;9.774;2023-10-19T13:35:38;21.85;;;9.70;;
59950;SDS011;45812;53.540;9.774;2023-10-19T13:38:05;20.63;;;9.48;;
59950;SDS011;45812;53.540;9.774;2023-10-19T13:40:32;23.23;;;10.25;;
59950;SDS011;45812;53.540;9.774;2023-10-19T13:42:58;19.42;;;8.90;;
59950;SDS011;45812;53.540;9.774;2023-10-19T13:45:24;19.73;;;9.48;;
59950;SDS011;45812;53.540;9.774;2023-10-19T13:47:49;21.38;;;9.65;;
59950;SDS011;45812;53.540;9.774;2023-10-19T13:50:15;21.70;;;9.85;;
59950;SDS011;45812;53.540;9.774;2023-10-19T13:52:40;20.00;;;9.50;;
59950;SDS011;45812;53.540;9.774;2023-10-19T13:55:06;19.08;;;9.60;;
59950;SDS011;45812;53.540;9.774;2023-10-19T13:57:32;20.42;;;10.20;;
59950;SDS011;45812;53.540;9.774;2023-10-19T13:59:58;20.60;;;9.35;;
59950;SDS011;45812;53.540;9.774;2023-10-19T14:02:23;24.80;;;9.98;;
59950;SDS011;45812;53.540;9.774;2023-10-19T14:04:49;19.80;;;9.57;;
59950;SDS011;45812;53.540;9.774;2023-10-19T14:07:16;21.58;;;9.35;;
59950;SDS011;45812;53.540;9.774;2023-10-19T14:09:42;19.75;;;9.82;;
59950;SDS011;45812;53.540;9.774;2023-10-19T14:12:07;22.20;;;10.93;;
59950;SDS011;45812;53.540;9.774;2023-10-19T14:14:33;23.75;;;12.13;;
59950;SDS011;45812;53.540;9.774;2023-10-19T14:16:59;30.95;;;19.20;;
59950;SDS011;45812;53.540;9.774;2023-10-19T14:19:25;23.27;;;10.48;;
59950;SDS011;45812;53.540;9.774;2023-10-19T14:21:50;30.67;;;16.17;;
59950;SDS011;45812;53.540;9.774;2023-10-19T14:24:16;26.98;;;14.05;;
59950;SDS011;45812;53.540;9.774;2023-10-19T14:26:43;21.42;;;10.88;;
59950;SDS011;45812;53.540;9.774;2023-10-19T14:29:11;21.25;;;10.50;;
59950;SDS011;45812;53.540;9.774;2023-10-19T14:31:37;22.50;;;9.30;;
59950;SDS011;45812;53.540;9.774;2023-10-19T14:34:03;27.13;;;11.77;;
59950;SDS011;45812;53.540;9.774;2023-10-19T14:36:28;19.63;;;9.93;;
59950;SDS011;45812;53.540;9.774;2023-10-19T14:38:54;25.98;;;11.68;;
59950;SDS011;45812;53.540;9.774;2023-10-19T14:41:19;32.42;;;16.25;;
59950;SDS011;45812;53.540;9.774;2023-10-19T14:43:44;28.67;;;13.43;;
59950;SDS011;45812;53.540;9.774;2023-10-19T14:46:10;34.35;;;12.90;;
59950;SDS011;45812;53.540;9.774;2023-10-19T14:48:35;29.35;;;11.90;;
59950;SDS011;45812;53.540;9.774;2023-10-19T14:51:01;21.48;;;10.63;;
59950;SDS011;45812;53.540;9.774;2023-10-19T14:53:27;32.83;;;17.02;;
59950;SDS011;45812;53.540;9.774;2023-10-19T14:55:54;31.83;;;14.32;;
59950;SDS011;45812;53.540;9.774;2023-10-19T14:58:20;24.83;;;11.18;;
59950;SDS011;45812;53.540;9.774;2023-10-19T15:00:46;21.58;;;10.10;;
59950;SDS011;45812;53.540;9.774;2023-10-19T15:03:19;25.33;;;11.57;;